Thiruvananthapuram, India (VOTV) 08-28N 076-57E 8M
Jun 24, 2019 - 02:00 PM EDT / 2019.06.24 1800 UTC
Wind: from the N (350 degrees) at 5 MPH (4 KT):0
Visibility: 1 mile(s):0
Sky conditions: partly cloudy
Weather: mist; Towering cumulus clouds observed
Temperature: 82 F (28 C)
Dew Point: 78 F (26 C)
Relative Humidity: 88%
Pressure (altimeter): 29.77 in. Hg (1008 hPa)
ob: VOTV 241800Z 35004KT 2500 BR SCT015 FEW025TCU 28/26 Q1008 NOSIG
cycle: 18